createdAt,value
2023-02-02T00:01:56.565Z,6.83
2023-02-02T00:04:35.963Z,10.57
2023-02-02T00:07:05.744Z,10.20
2023-02-02T00:09:34.798Z,7.97
2023-02-02T00:12:03.831Z,5.97
2023-02-02T00:14:32.429Z,5.70
2023-02-02T00:17:01.091Z,10.30
2023-02-02T00:19:31.699Z,7.77
2023-02-02T00:22:00.462Z,8.50
2023-02-02T00:24:29.264Z,9.97
2023-02-02T00:27:00.866Z,4.17
2023-02-02T00:29:32.253Z,7.80
2023-02-02T00:32:00.874Z,8.30
2023-02-02T00:34:29.474Z,7.97
2023-02-02T00:36:58.086Z,10.70
2023-02-02T00:39:27.520Z,10.10
2023-02-02T00:41:56.402Z,8.20
2023-02-02T00:44:42.291Z,7.43
2023-02-02T00:47:10.997Z,8.83
2023-02-02T00:49:39.591Z,5.90
2023-02-02T00:52:08.283Z,8.50
2023-02-02T00:54:36.901Z,7.67
2023-02-02T00:57:05.627Z,11.40
2023-02-02T00:59:34.546Z,7.47
2023-02-02T01:02:03.244Z,11.83
2023-02-02T01:04:32.047Z,11.40
2023-02-02T01:07:00.703Z,10.83
2023-02-02T01:09:29.295Z,10.97
2023-02-02T01:11:58.086Z,9.67
2023-02-02T01:14:26.804Z,6.87
2023-02-02T01:16:55.425Z,6.63
2023-02-02T01:19:24.090Z,9.00
2023-02-02T01:21:52.727Z,10.33
2023-02-02T01:24:21.414Z,2.93
2023-02-02T01:26:50.154Z,12.17
2023-02-02T01:29:18.751Z,7.53
2023-02-02T01:31:47.532Z,7.93
2023-02-02T01:34:16.251Z,8.17
2023-02-02T01:36:44.897Z,11.47
2023-02-02T01:39:13.477Z,8.03
2023-02-02T01:41:43.191Z,8.53
2023-02-02T01:44:58.132Z,9.77
2023-02-02T01:47:31.846Z,9.70
2023-02-02T01:50:00.623Z,7.00
2023-02-02T01:52:31.650Z,6.63
2023-02-02T01:55:08.578Z,9.37
2023-02-02T01:57:59.332Z,6.63
2023-02-02T02:00:28.421Z,5.73
2023-02-02T02:03:06.543Z,11.47
2023-02-02T02:05:46.330Z,8.77
2023-02-02T02:08:26.727Z,8.30
2023-02-02T02:10:55.541Z,10.50
2023-02-02T02:13:47.885Z,7.80
2023-02-02T02:16:57.019Z,6.77
2023-02-02T02:20:03.845Z,8.13
2023-02-02T02:23:21.404Z,9.63
2023-02-02T02:26:24.794Z,5.07
2023-02-02T02:28:59.525Z,3.93
2023-02-02T02:31:36.734Z,6.53
2023-02-02T02:34:15.907Z,4.97
2023-02-02T02:36:44.513Z,7.80
2023-02-02T02:39:24.820Z,8.33
2023-02-02T02:42:00.873Z,7.17
2023-02-02T02:44:30.742Z,7.47
2023-02-02T02:46:59.463Z,8.47
2023-02-02T02:49:28.085Z,5.97
2023-02-02T02:51:57.922Z,13.10
2023-02-02T02:54:40.048Z,10.03
2023-02-02T02:57:43.373Z,7.20
2023-02-02T03:00:21.476Z,5.63
2023-02-02T03:03:28.629Z,6.07
2023-02-02T03:06:24.753Z,10.20
2023-02-02T03:08:53.405Z,8.70
2023-02-02T03:11:22.746Z,4.10
2023-02-02T03:13:51.680Z,4.17
2023-02-02T03:16:20.217Z,6.53
2023-02-02T03:18:48.959Z,7.83
2023-02-02T03:21:17.548Z,11.97
2023-02-02T03:23:46.153Z,9.57
2023-02-02T03:26:15.202Z,7.70
2023-02-02T03:28:44.098Z,7.57
2023-02-02T03:31:12.826Z,6.27
2023-02-02T03:33:41.569Z,9.87
2023-02-02T03:36:10.528Z,6.10
2023-02-02T03:38:39.189Z,7.83
2023-02-02T03:41:08.146Z,6.73
2023-02-02T03:43:36.787Z,7.63
2023-02-02T03:46:07.279Z,6.03
2023-02-02T03:48:40.028Z,8.07
2023-02-02T03:51:14.763Z,8.17
2023-02-02T03:53:44.516Z,5.70
2023-02-02T03:56:13.103Z,9.27
2023-02-02T03:58:41.770Z,11.93
2023-02-02T04:01:14.618Z,6.77
2023-02-02T04:03:43.375Z,9.77
2023-02-02T04:06:12.022Z,8.10
2023-02-02T04:08:40.551Z,8.60
2023-02-02T04:11:11.764Z,9.60
2023-02-02T04:13:43.323Z,8.03
2023-02-02T04:16:12.842Z,8.43
2023-02-02T04:18:41.372Z,5.80
2023-02-02T04:21:10.281Z,6.77
2023-02-02T04:23:38.876Z,8.93
2023-02-02T04:26:07.700Z,12.70
2023-02-02T04:28:36.348Z,12.37
2023-02-02T04:31:04.875Z,9.30
2023-02-02T04:33:33.294Z,9.23
2023-02-02T04:36:01.724Z,9.23
2023-02-02T04:38:30.150Z,6.30
2023-02-02T04:40:58.636Z,9.37
2023-02-02T04:43:27.044Z,11.07
2023-02-02T04:45:58.513Z,8.20
2023-02-02T04:48:26.978Z,7.77
2023-02-02T04:51:08.183Z,11.13
2023-02-02T04:53:36.778Z,8.00
2023-02-02T04:56:19.848Z,7.07
2023-02-02T04:58:48.436Z,10.43
2023-02-02T05:01:20.833Z,7.30
2023-02-02T05:03:50.347Z,10.03
2023-02-02T05:06:19.723Z,9.07
2023-02-02T05:08:49.188Z,7.57
2023-02-02T05:11:21.098Z,8.23
2023-02-02T05:13:52.473Z,12.73
2023-02-02T05:16:21.588Z,9.17
2023-02-02T05:18:56.644Z,12.63
2023-02-02T05:21:25.750Z,8.70
2023-02-02T05:23:54.214Z,7.50
2023-02-02T05:26:26.254Z,7.50
2023-02-02T05:28:55.140Z,7.20
2023-02-02T05:31:23.597Z,5.33
2023-02-02T05:33:52.024Z,6.57
2023-02-02T05:36:20.440Z,5.63
2023-02-02T05:38:48.896Z,7.67
2023-02-02T05:41:17.489Z,10.10
2023-02-02T05:43:45.931Z,10.70
2023-02-02T05:46:14.708Z,8.20
2023-02-02T05:48:43.381Z,8.43
2023-02-02T05:51:24.221Z,7.43
2023-02-02T05:53:52.681Z,12.07
2023-02-02T05:56:21.263Z,4.53
2023-02-02T05:58:50.011Z,7.03
2023-02-02T06:01:21.442Z,12.97
2023-02-02T06:03:50.226Z,10.03
2023-02-02T06:06:18.879Z,8.47
2023-02-02T06:08:47.431Z,9.00
2023-02-02T06:11:19.014Z,8.73
2023-02-02T06:13:47.799Z,10.17
2023-02-02T06:16:16.561Z,7.53
2023-02-02T06:18:45.331Z,12.30
2023-02-02T06:21:13.838Z,7.80
2023-02-02T06:23:45.709Z,7.60
2023-02-02T06:26:15.464Z,9.20
2023-02-02T06:28:44.497Z,7.00
2023-02-02T06:31:13.521Z,9.07
2023-02-02T06:33:42.086Z,13.70
2023-02-02T06:36:10.612Z,6.67
2023-02-02T06:38:39.065Z,8.30
2023-02-02T06:41:08.074Z,15.03
2023-02-02T06:43:36.878Z,8.30
2023-02-02T06:46:05.521Z,7.20
2023-02-02T06:48:34.025Z,9.27
2023-02-02T06:51:02.866Z,6.90
2023-02-02T06:53:31.430Z,15.23
2023-02-02T06:56:05.976Z,10.73
2023-02-02T06:58:35.756Z,12.03
2023-02-02T07:01:07.429Z,11.43
2023-02-02T07:03:36.189Z,8.67
2023-02-02T07:06:24.109Z,11.43
2023-02-02T07:09:02.501Z,10.53
2023-02-02T07:11:38.522Z,6.37
2023-02-02T07:14:13.369Z,7.53
2023-02-02T07:16:41.769Z,9.23
2023-02-02T07:19:10.414Z,9.53
2023-02-02T07:21:38.868Z,13.63
2023-02-02T07:24:08.214Z,6.60
2023-02-02T07:26:37.179Z,6.30
2023-02-02T07:29:06.655Z,7.43
2023-02-02T07:31:36.796Z,8.80
2023-02-02T07:34:05.553Z,6.63
2023-02-02T07:36:34.156Z,13.23
2023-02-02T07:39:04.794Z,8.20
2023-02-02T07:41:35.185Z,7.73
2023-02-02T07:44:03.988Z,10.90
2023-02-02T07:46:32.800Z,12.70
2023-02-02T07:49:01.302Z,6.73
2023-02-02T07:51:29.757Z,8.70
2023-02-02T07:53:59.520Z,11.50
2023-02-02T07:56:29.204Z,11.67
2023-02-02T07:58:58.591Z,7.40
2023-02-02T08:01:28.830Z,6.30
2023-02-02T08:04:00.379Z,9.83
2023-02-02T08:06:40.500Z,6.57
2023-02-02T08:09:10.483Z,10.67
2023-02-02T08:11:39.727Z,6.40
2023-02-02T08:14:08.614Z,11.53
2023-02-02T08:16:37.267Z,6.23
2023-02-02T08:19:05.913Z,9.03
2023-02-02T08:21:36.127Z,10.10
2023-02-02T08:24:05.314Z,4.50
2023-02-02T08:26:34.179Z,7.47
2023-02-02T08:29:07.955Z,13.93
2023-02-02T08:31:39.374Z,7.20
2023-02-02T08:34:07.912Z,7.40
2023-02-02T08:36:36.165Z,6.00
2023-02-02T08:39:08.247Z,5.07
2023-02-02T08:41:37.646Z,8.83
2023-02-02T08:44:11.688Z,8.73
2023-02-02T08:46:40.384Z,5.90
2023-02-02T08:49:11.704Z,8.27
2023-02-02T08:51:40.313Z,7.43
2023-02-02T08:54:08.813Z,8.40
2023-02-02T08:56:36.887Z,9.50
2023-02-02T08:59:05.932Z,8.00
2023-02-02T09:01:36.101Z,8.13
2023-02-02T09:04:07.744Z,10.00
2023-02-02T09:06:41.114Z,11.40
2023-02-02T09:09:14.001Z,11.00
2023-02-02T09:11:43.273Z,10.53
2023-02-02T09:14:14.226Z,7.13
2023-02-02T09:16:42.899Z,11.10
2023-02-02T09:19:13.251Z,6.70
2023-02-02T09:21:41.716Z,7.57
2023-02-02T09:24:13.955Z,7.00
2023-02-02T09:26:42.487Z,10.63
2023-02-02T09:29:15.344Z,6.20
2023-02-02T09:31:43.995Z,13.47
2023-02-02T09:34:15.463Z,8.37
2023-02-02T09:36:45.011Z,11.87
2023-02-02T09:39:15.151Z,10.23
2023-02-02T09:41:43.610Z,12.77
2023-02-02T09:44:22.500Z,13.93
2023-02-02T09:47:14.837Z,12.27
2023-02-02T09:49:49.513Z,7.53
2023-02-02T09:52:27.239Z,9.20
2023-02-02T09:55:04.752Z,17.50
2023-02-02T09:57:51.166Z,32.33
2023-02-02T10:00:27.948Z,20.57
2023-02-02T10:03:03.414Z,18.33
2023-02-02T10:05:48.647Z,8.87
2023-02-02T10:08:38.063Z,16.30
2023-02-02T10:11:41.582Z,11.83
2023-02-02T10:14:40.142Z,10.37
2023-02-02T10:17:42.322Z,4.60
2023-02-02T10:20:56.588Z,11.77
2023-02-02T10:23:44.355Z,13.03
2023-02-02T10:26:56.949Z,9.27
2023-02-02T10:29:25.519Z,15.17
2023-02-02T10:32:25.421Z,6.63
2023-02-02T10:35:13.474Z,8.07
2023-02-02T10:37:51.461Z,11.77
2023-02-02T10:40:51.157Z,11.20
2023-02-02T10:43:49.566Z,13.67
2023-02-02T10:46:39.739Z,9.53
2023-02-02T10:49:36.201Z,7.63
2023-02-02T10:52:16.923Z,12.07
2023-02-02T10:55:04.471Z,10.67
2023-02-02T10:58:27.754Z,9.83
2023-02-02T11:01:02.076Z,10.90
2023-02-02T11:03:32.813Z,11.37
2023-02-02T11:06:21.800Z,13.90
2023-02-02T11:08:59.533Z,12.50
2023-02-02T11:11:33.796Z,6.33
2023-02-02T11:14:11.108Z,11.80
2023-02-02T11:16:47.253Z,33.83
2023-02-02T11:19:31.239Z,196.33
2023-02-02T11:22:03.517Z,122.50
2023-02-02T11:24:49.689Z,94.67
2023-02-02T11:27:18.340Z,146.67
2023-02-02T11:29:55.213Z,93.80
2023-02-02T11:32:34.267Z,117.77
2023-02-02T11:35:08.509Z,29.90
2023-02-02T11:37:54.338Z,116.80
2023-02-02T11:40:43.971Z,217.03
2023-02-02T11:43:21.005Z,25.70
2023-02-02T11:46:00.877Z,8.90
2023-02-02T11:48:40.449Z,10.87
2023-02-02T11:51:23.616Z,7.57
2023-02-02T11:54:08.030Z,10.17
2023-02-02T11:56:38.704Z,10.67
2023-02-02T11:59:07.508Z,8.17
2023-02-02T12:01:39.996Z,12.07
2023-02-02T12:04:17.467Z,8.37
2023-02-02T12:06:45.967Z,14.57
2023-02-02T12:09:24.632Z,12.13
2023-02-02T12:12:28.066Z,7.33
2023-02-02T12:15:21.075Z,11.43
2023-02-02T12:17:49.941Z,12.57
2023-02-02T12:20:39.901Z,11.23
2023-02-02T12:23:37.164Z,7.37
2023-02-02T12:26:09.431Z,14.77
2023-02-02T12:28:39.075Z,10.63
2023-02-02T12:31:46.784Z,12.03
2023-02-02T12:35:23.164Z,7.03
2023-02-02T12:38:26.018Z,8.23
2023-02-02T12:41:23.272Z,11.50
2023-02-02T12:44:26.181Z,5.40
2023-02-02T12:47:30.523Z,11.80
2023-02-02T12:50:27.784Z,11.73
2023-02-02T12:53:08.981Z,8.27
2023-02-02T12:55:48.154Z,4.50
2023-02-02T12:58:46.652Z,8.67
2023-02-02T13:01:52.456Z,6.60
2023-02-02T13:04:26.321Z,6.53
2023-02-02T13:07:12.378Z,9.70
2023-02-02T13:09:52.071Z,9.50
2023-02-02T13:12:24.315Z,10.87
2023-02-02T13:15:09.269Z,9.03
2023-02-02T13:17:43.502Z,9.00
2023-02-02T13:20:45.411Z,7.33
2023-02-02T13:23:36.323Z,10.10
2023-02-02T13:26:24.751Z,9.53
2023-02-02T13:29:09.433Z,13.07
2023-02-02T13:31:58.209Z,5.00
2023-02-02T13:34:56.849Z,9.63
2023-02-02T13:37:52.799Z,8.27
2023-02-02T13:40:34.072Z,5.73
2023-02-02T13:43:25.635Z,9.43
2023-02-02T13:46:08.659Z,6.23
2023-02-02T13:48:43.133Z,10.33
2023-02-02T13:52:02.378Z,6.20
2023-02-02T13:55:03.424Z,1.97
2023-02-02T13:57:52.281Z,4.67
2023-02-02T14:00:25.318Z,6.80
2023-02-02T14:03:21.789Z,8.93
2023-02-02T14:06:19.494Z,7.63
2023-02-02T14:08:57.182Z,7.57
2023-02-02T14:11:38.611Z,5.87
2023-02-02T14:14:33.258Z,6.60
2023-02-02T14:17:34.514Z,6.27
2023-02-02T14:20:06.646Z,4.87
2023-02-02T14:22:43.742Z,4.20
2023-02-02T14:25:33.534Z,5.87
2023-02-02T14:28:11.629Z,5.33
2023-02-02T14:30:41.406Z,6.37
2023-02-02T14:33:27.100Z,6.37
2023-02-02T14:36:03.132Z,10.70
2023-02-02T14:38:46.828Z,9.10
2023-02-02T14:41:38.912Z,7.33
2023-02-02T14:44:08.285Z,8.00
2023-02-02T14:46:41.454Z,6.37
2023-02-02T14:49:14.807Z,6.67
2023-02-02T14:51:56.703Z,6.13
2023-02-02T14:54:34.563Z,6.73
2023-02-02T14:57:43.719Z,6.07
2023-02-02T15:00:38.161Z,7.77
2023-02-02T15:03:47.278Z,7.80
2023-02-02T15:06:42.406Z,5.70
2023-02-02T15:09:23.477Z,5.73
2023-02-02T15:12:02.108Z,8.73
2023-02-02T15:14:54.521Z,5.67
2023-02-02T15:18:00.728Z,7.57
2023-02-02T15:20:34.015Z,6.10
2023-02-02T15:23:23.519Z,7.10
2023-02-02T15:26:08.534Z,6.90
2023-02-02T15:28:43.356Z,5.60
2023-02-02T15:31:50.899Z,6.33
2023-02-02T15:34:40.601Z,9.50
2023-02-02T15:37:17.493Z,4.93
2023-02-02T15:39:56.336Z,4.37
2023-02-02T15:42:55.982Z,7.87
2023-02-02T15:45:34.834Z,6.43
2023-02-02T15:48:16.228Z,5.23
2023-02-02T15:50:51.287Z,10.00
2023-02-02T15:53:33.915Z,9.53
2023-02-02T15:56:07.963Z,7.03
2023-02-02T15:58:40.521Z,6.97
2023-02-02T16:01:20.685Z,5.33
2023-02-02T16:04:16.744Z,6.33
2023-02-02T16:06:45.499Z,5.93
2023-02-02T16:09:26.503Z,7.43
2023-02-02T16:11:55.161Z,4.30
2023-02-02T16:14:23.970Z,7.27
2023-02-02T16:16:52.670Z,5.83
2023-02-02T16:19:27.030Z,6.57
2023-02-02T16:22:05.720Z,4.33
2023-02-02T16:24:40.523Z,4.40
2023-02-02T16:27:14.710Z,7.93
2023-02-02T16:29:44.035Z,6.30
2023-02-02T16:32:39.273Z,9.63
2023-02-02T16:35:38.712Z,4.13
2023-02-02T16:38:35.348Z,5.10
2023-02-02T16:41:26.547Z,3.77
2023-02-02T16:43:55.097Z,11.27
2023-02-02T16:46:46.142Z,5.57
2023-02-02T16:49:26.382Z,5.53
2023-02-02T16:52:15.225Z,6.60
2023-02-02T16:54:54.856Z,4.67
2023-02-02T16:57:34.300Z,4.80
2023-02-02T17:00:09.211Z,3.80
2023-02-02T17:02:42.161Z,9.97
2023-02-02T17:05:28.164Z,7.37
2023-02-02T17:08:04.691Z,4.83
2023-02-02T17:10:39.707Z,6.73
2023-02-02T17:13:33.555Z,6.27
2023-02-02T17:16:02.503Z,9.07
2023-02-02T17:18:31.072Z,4.07
2023-02-02T17:21:04.348Z,8.70
2023-02-02T17:23:36.344Z,5.93
2023-02-02T17:26:05.480Z,12.70
2023-02-02T17:28:34.216Z,5.30
2023-02-02T17:31:14.647Z,7.27
2023-02-02T17:33:43.827Z,7.30
2023-02-02T17:36:14.408Z,5.77
2023-02-02T17:38:43.176Z,5.50
2023-02-02T17:41:14.339Z,4.57
2023-02-02T17:43:43.904Z,6.17
2023-02-02T17:46:14.228Z,7.27
2023-02-02T17:48:42.914Z,12.00
2023-02-02T17:51:18.457Z,7.83
2023-02-02T17:53:47.253Z,6.83
2023-02-02T17:56:16.338Z,7.60
2023-02-02T17:58:44.982Z,6.23
2023-02-02T18:01:14.024Z,9.17
2023-02-02T18:03:46.525Z,9.00
2023-02-02T18:06:15.115Z,11.33
2023-02-02T18:08:44.392Z,4.90
2023-02-02T18:11:15.107Z,6.43
2023-02-02T18:13:44.592Z,9.57
2023-02-02T18:16:14.557Z,8.60
2023-02-02T18:18:43.142Z,6.50
2023-02-02T18:21:14.156Z,5.70
2023-02-02T18:23:43.112Z,8.33
2023-02-02T18:26:22.247Z,5.67
2023-02-02T18:28:53.495Z,6.23
2023-02-02T18:31:24.021Z,3.20
2023-02-02T18:33:53.951Z,8.73
2023-02-02T18:36:23.883Z,3.97
2023-02-02T18:38:54.016Z,6.00
2023-02-02T18:41:22.984Z,4.90
2023-02-02T18:43:52.925Z,6.83
2023-02-02T18:46:21.661Z,7.30
2023-02-02T18:48:50.394Z,4.73
2023-02-02T18:51:22.061Z,6.90
2023-02-02T18:53:50.722Z,6.40
2023-02-02T18:56:19.424Z,6.03
2023-02-02T18:58:48.121Z,8.20
2023-02-02T19:01:19.288Z,7.90
2023-02-02T19:03:54.285Z,7.00
2023-02-02T19:06:40.401Z,4.30
2023-02-02T19:09:09.986Z,5.27
2023-02-02T19:11:48.152Z,6.27
2023-02-02T19:14:31.177Z,9.47
2023-02-02T19:17:24.583Z,8.97
2023-02-02T19:19:53.273Z,3.33
2023-02-02T19:22:30.592Z,5.77
2023-02-02T19:24:59.919Z,12.23
2023-02-02T19:27:28.579Z,13.20
2023-02-02T19:29:59.938Z,4.63
2023-02-02T19:32:33.749Z,5.03
2023-02-02T19:35:02.867Z,8.70
2023-02-02T19:37:33.610Z,6.80
2023-02-02T19:40:10.971Z,10.93
2023-02-02T19:42:46.844Z,7.37
2023-02-02T19:45:35.347Z,6.10
2023-02-02T19:48:19.423Z,6.13
2023-02-02T19:50:48.637Z,5.50
2023-02-02T19:53:39.151Z,5.13
2023-02-02T19:56:28.954Z,6.10
2023-02-02T19:58:57.639Z,4.53
2023-02-02T20:01:28.227Z,4.23
2023-02-02T20:03:58.514Z,6.17
2023-02-02T20:06:30.644Z,8.77
2023-02-02T20:09:01.033Z,3.93
2023-02-02T20:11:36.055Z,3.97
2023-02-02T20:14:19.680Z,5.90
2023-02-02T20:16:54.991Z,7.20
2023-02-02T20:19:26.664Z,3.43
2023-02-02T20:21:55.829Z,4.90
2023-02-02T20:24:40.547Z,3.40
2023-02-02T20:27:25.587Z,5.23
2023-02-02T20:29:57.036Z,2.93
2023-02-02T20:32:39.196Z,3.23
2023-02-02T20:35:23.791Z,3.97
2023-02-02T20:37:52.808Z,4.30
2023-02-02T20:40:30.847Z,4.53
2023-02-02T20:42:59.636Z,4.30
2023-02-02T20:45:28.250Z,3.43
2023-02-02T20:47:56.910Z,4.07
2023-02-02T20:50:25.816Z,4.40
2023-02-02T20:52:55.794Z,3.50
2023-02-02T20:55:24.481Z,5.70
2023-02-02T20:57:53.112Z,4.80
2023-02-02T21:00:27.040Z,8.33
2023-02-02T21:02:56.451Z,8.03
2023-02-02T21:05:25.477Z,5.63
2023-02-02T21:07:55.698Z,5.70
2023-02-02T21:10:27.351Z,4.33
2023-02-02T21:12:56.193Z,6.13
2023-02-02T21:15:26.351Z,4.40
2023-02-02T21:17:55.282Z,4.93
2023-02-02T21:20:24.123Z,4.97
2023-02-02T21:22:52.786Z,4.93
2023-02-02T21:25:21.353Z,6.17
2023-02-02T21:27:49.985Z,4.00
2023-02-02T21:30:18.655Z,3.93
2023-02-02T21:32:47.268Z,6.83
2023-02-02T21:35:15.983Z,6.30
2023-02-02T21:37:46.907Z,2.80
2023-02-02T21:40:32.950Z,3.40
2023-02-02T21:43:07.168Z,3.63
2023-02-02T21:45:39.892Z,4.97
2023-02-02T21:48:34.945Z,5.73
2023-02-02T21:51:27.393Z,5.00
2023-02-02T21:53:56.055Z,3.30
2023-02-02T21:56:40.600Z,4.57
2023-02-02T21:59:23.893Z,5.43
2023-02-02T22:01:54.297Z,5.37
2023-02-02T22:04:22.879Z,8.20
2023-02-02T22:07:00.617Z,3.67
2023-02-02T22:09:38.966Z,6.00
2023-02-02T22:12:22.280Z,5.83
2023-02-02T22:14:53.222Z,4.37
2023-02-02T22:17:40.640Z,2.63
2023-02-02T22:20:34.722Z,5.50
2023-02-02T22:23:03.843Z,6.00
2023-02-02T22:25:39.495Z,5.17
2023-02-02T22:28:26.114Z,4.97
2023-02-02T22:30:56.503Z,4.30
2023-02-02T22:33:26.483Z,4.23
2023-02-02T22:35:55.201Z,4.37
2023-02-02T22:38:26.091Z,3.63
2023-02-02T22:40:54.810Z,5.63
2023-02-02T22:43:23.501Z,4.43
2023-02-02T22:45:51.964Z,6.87
2023-02-02T22:48:20.472Z,6.27
2023-02-02T22:50:48.898Z,3.07
2023-02-02T22:53:17.352Z,2.83
2023-02-02T22:55:45.762Z,2.77
2023-02-02T22:58:14.245Z,2.67
2023-02-02T23:00:42.744Z,4.07
2023-02-02T23:03:11.275Z,5.27
2023-02-02T23:05:39.671Z,4.47
2023-02-02T23:08:08.178Z,3.83
2023-02-02T23:10:36.888Z,4.57
2023-02-02T23:13:06.402Z,4.47
2023-02-02T23:15:35.722Z,4.50
2023-02-02T23:18:04.554Z,4.90
2023-02-02T23:20:32.951Z,3.57
2023-02-02T23:23:02.108Z,4.30
2023-02-02T23:25:30.504Z,3.93
2023-02-02T23:27:59.094Z,2.80
2023-02-02T23:30:27.843Z,4.60
2023-02-02T23:32:56.783Z,4.10
2023-02-02T23:35:25.205Z,2.37
2023-02-02T23:37:53.631Z,2.00
2023-02-02T23:40:22.135Z,2.27
2023-02-02T23:42:50.570Z,2.80
2023-02-02T23:45:19.077Z,2.23
2023-02-02T23:47:47.826Z,3.57
2023-02-02T23:50:16.387Z,5.67
2023-02-02T23:52:44.831Z,1.53
2023-02-02T23:55:13.286Z,4.57
2023-02-02T23:57:41.743Z,3.47
